Terminal Aerodrome Forecast
Issued by NWS

Home | Current Version | Previous Version | Text Only | Print | Product List | Glossary On
Versions: 1 2 3 4 5 6 7 8 9 10 11 12 13 14 15 16 17 18 19 20 21 22 23 24 25 26 27 28 29 30 31 32 33 34 35 36 37 38 39 40
000
FTAK31 PAJN 162329
TAFAJN
TAF
PAJN 162329Z 1700/1724 00000KT 5SM BCFG FEW001 SCT200
     FM170200 00000KT 1/2SM FZFG VV003
     FM170500 00000KT 2SM BR BKN005
     FM170700 00000KT 5SM BCFG SCT003=

USA.gov is the U.S. government's official web portal to all federal, state and local government web resources and services.